createdAt,value
2023-04-15T00:02:17.993Z,37.72
2023-04-15T00:04:50.420Z,41.95
2023-04-15T00:07:20.833Z,30.55
2023-04-15T00:09:52.630Z,49.80
2023-04-15T00:12:49.352Z,46.85
2023-04-15T00:15:19.838Z,27.90
2023-04-15T00:17:54.444Z,51.58
2023-04-15T00:20:28.333Z,33.22
2023-04-15T00:22:59.519Z,48.33
2023-04-15T00:25:31.225Z,18.20
2023-04-15T00:28:01.529Z,29.48
2023-04-15T00:30:33.694Z,26.85
2023-04-15T00:33:06.818Z,25.85
2023-04-15T00:35:40.088Z,37.80
2023-04-15T00:38:11.204Z,17.00
2023-04-15T00:40:42.437Z,23.50
2023-04-15T00:43:14.424Z,19.83
2023-04-15T00:45:45.512Z,25.02
2023-04-15T00:48:18.179Z,38.28
2023-04-15T00:50:49.228Z,57.22
2023-04-15T00:53:20.900Z,24.58
2023-04-15T00:55:54.050Z,42.80
2023-04-15T00:58:26.356Z,36.97
2023-04-15T01:00:59.625Z,22.55
2023-04-15T01:03:32.396Z,28.50
2023-04-15T01:06:04.529Z,47.95
2023-04-15T01:08:35.931Z,38.70
2023-04-15T01:11:07.673Z,52.85
2023-04-15T01:13:38.766Z,23.95
2023-04-15T01:16:10.835Z,69.85
2023-04-15T01:18:41.923Z,57.72
2023-04-15T01:21:13.083Z,38.63
2023-04-15T01:23:45.349Z,62.83
2023-04-15T01:26:15.922Z,24.95
2023-04-15T01:28:47.705Z,50.20
2023-04-15T01:31:18.205Z,17.02
2023-04-15T01:33:51.104Z,42.30
2023-04-15T01:36:22.399Z,18.83
2023-04-15T01:38:57.789Z,22.75
2023-04-15T01:41:31.728Z,31.17
2023-04-15T01:44:02.133Z,14.93
2023-04-15T01:46:32.966Z,18.85
2023-04-15T01:49:04.755Z,34.22
2023-04-15T01:51:35.857Z,67.45
2023-04-15T01:54:07.207Z,12.63
2023-04-15T01:56:37.572Z,33.55
2023-04-15T01:59:08.188Z,27.10
2023-04-15T02:01:39.589Z,52.72
2023-04-15T02:04:17.480Z,40.22
2023-04-15T02:06:48.624Z,21.33
2023-04-15T02:09:20.314Z,50.00
2023-04-15T02:11:51.443Z,29.25
2023-04-15T02:14:23.699Z,32.08
2023-04-15T02:16:55.343Z,39.97
2023-04-15T02:19:27.415Z,60.05
2023-04-15T02:21:59.430Z,59.00
2023-04-15T02:24:32.567Z,52.05
2023-04-15T02:27:03.625Z,33.60
2023-04-15T02:29:34.499Z,59.10
2023-04-15T02:32:05.029Z,52.63
2023-04-15T02:34:36.674Z,57.63
2023-04-15T02:37:08.111Z,56.35
2023-04-15T02:39:39.944Z,35.85
2023-04-15T02:42:10.232Z,50.20
2023-04-15T02:44:50.080Z,36.05
2023-04-15T02:47:23.157Z,43.72
2023-04-15T02:49:53.471Z,33.33
2023-04-15T02:52:23.616Z,39.75
2023-04-15T02:54:58.864Z,47.00
2023-04-15T02:57:30.726Z,45.72
2023-04-15T03:00:12.222Z,28.73
2023-04-15T03:02:49.610Z,43.75
2023-04-15T03:05:20.227Z,46.25
2023-04-15T03:07:56.424Z,42.03
2023-04-15T03:10:27.617Z,47.60
2023-04-15T03:12:59.901Z,33.20
2023-04-15T03:15:31.085Z,37.35
2023-04-15T03:18:02.741Z,46.95
2023-04-15T03:20:36.302Z,49.88
2023-04-15T03:23:07.878Z,26.25
2023-04-15T03:25:38.922Z,42.10
2023-04-15T03:28:11.522Z,38.85
2023-04-15T03:30:41.716Z,31.10
2023-04-15T03:33:12.834Z,31.17
2023-04-15T03:35:42.979Z,24.75
2023-04-15T03:38:13.571Z,43.00
2023-04-15T03:40:43.916Z,30.23
2023-04-15T03:43:15.512Z,37.53
2023-04-15T03:45:45.848Z,43.67
2023-04-15T03:48:18.125Z,22.88
2023-04-15T03:50:50.534Z,34.17
2023-04-15T03:53:22.759Z,38.63
2023-04-15T03:55:54.362Z,46.03
2023-04-15T03:58:24.653Z,52.08
2023-04-15T04:00:54.799Z,43.35
2023-04-15T04:03:25.429Z,55.55
2023-04-15T04:05:55.676Z,37.67
2023-04-15T04:08:27.366Z,12.45
2023-04-15T04:10:57.737Z,5.05
2023-04-15T04:13:28.935Z,6.80
2023-04-15T04:15:59.197Z,5.60
2023-04-15T04:18:29.577Z,1.88
2023-04-15T04:21:01.120Z,6.03
2023-04-15T04:23:32.605Z,4.57
2023-04-15T04:26:03.029Z,2.00
2023-04-15T04:28:33.080Z,4.93
2023-04-15T04:31:04.762Z,4.70
2023-04-15T04:33:48.448Z,3.97
2023-04-15T04:36:19.353Z,4.22
2023-04-15T04:38:50.828Z,4.82
2023-04-15T04:41:21.855Z,5.07
2023-04-15T04:43:54.241Z,5.43
2023-04-15T04:46:25.262Z,4.78
2023-04-15T04:48:56.110Z,3.38
2023-04-15T04:51:26.581Z,4.65
2023-04-15T04:53:56.674Z,3.88
2023-04-15T04:56:27.102Z,4.05
2023-04-15T04:58:58.575Z,3.75
2023-04-15T05:01:29.885Z,4.35
2023-04-15T05:04:00.432Z,2.30
2023-04-15T05:06:32.896Z,2.97
2023-04-15T05:09:04.003Z,3.92
2023-04-15T05:11:34.939Z,3.15
2023-04-15T05:14:06.069Z,3.42
2023-04-15T05:16:37.853Z,3.33
2023-04-15T05:19:09.862Z,2.65
2023-04-15T05:21:40.152Z,3.17
2023-04-15T05:24:11.229Z,4.95
2023-04-15T05:26:46.996Z,4.68
2023-04-15T05:29:18.311Z,5.07
2023-04-15T05:31:49.484Z,3.70
2023-04-15T05:34:20.996Z,2.55
2023-04-15T05:36:54.279Z,3.05
2023-04-15T05:39:25.728Z,3.20
2023-04-15T05:41:56.810Z,3.03
2023-04-15T05:44:27.393Z,2.67
2023-04-15T05:46:58.340Z,4.88
2023-04-15T05:49:29.025Z,5.53
2023-04-15T05:52:01.165Z,3.58
2023-04-15T05:54:31.981Z,4.22
2023-04-15T05:57:02.391Z,5.18
2023-04-15T05:59:33.155Z,3.92
2023-04-15T06:02:05.860Z,3.97
2023-04-15T06:04:36.319Z,2.17
2023-04-15T06:07:07.182Z,6.43
2023-04-15T06:09:37.809Z,2.80
2023-04-15T06:12:13.380Z,3.53
2023-04-15T06:14:44.568Z,3.10
2023-04-15T06:17:16.405Z,3.28
2023-04-15T06:19:52.988Z,9.63
2023-04-15T06:22:29.191Z,1.58
2023-04-15T06:25:00.632Z,1.17
2023-04-15T06:27:31.540Z,4.88
2023-04-15T06:30:02.695Z,5.65
2023-04-15T06:32:35.155Z,4.78
2023-04-15T06:35:05.960Z,4.05
2023-04-15T06:37:36.375Z,1.80
2023-04-15T06:40:07.010Z,1.10
2023-04-15T06:42:39.278Z,2.67
2023-04-15T06:45:10.171Z,2.00
2023-04-15T06:47:41.036Z,2.40
2023-04-15T06:50:14.270Z,2.25
2023-04-15T06:52:44.712Z,4.53
2023-04-15T06:55:14.512Z,2.03
2023-04-15T06:57:44.718Z,3.95
2023-04-15T07:00:16.153Z,2.72
2023-04-15T07:02:47.599Z,1.63
2023-04-15T07:05:17.911Z,2.03
2023-04-15T07:07:48.067Z,3.25
2023-04-15T07:10:18.596Z,3.13
2023-04-15T07:12:49.736Z,1.65
2023-04-15T07:15:20.137Z,2.95
2023-04-15T07:17:51.002Z,3.38
2023-04-15T07:20:21.164Z,2.53
2023-04-15T07:22:51.196Z,2.28
2023-04-15T07:25:22.107Z,2.03
2023-04-15T07:27:52.842Z,2.00
2023-04-15T07:30:24.087Z,3.15
2023-04-15T07:32:54.569Z,1.75
2023-04-15T07:35:25.458Z,3.60
2023-04-15T07:37:55.633Z,2.28
2023-04-15T07:40:25.777Z,2.67
2023-04-15T07:42:57.265Z,3.33
2023-04-15T07:45:28.797Z,4.53
2023-04-15T07:47:59.440Z,1.55
2023-04-15T07:50:31.256Z,2.50
2023-04-15T07:53:02.455Z,2.03
2023-04-15T07:55:32.755Z,3.42
2023-04-15T07:58:02.781Z,3.78
2023-04-15T08:00:34.209Z,2.65
2023-04-15T08:03:05.711Z,3.67
2023-04-15T08:05:36.916Z,4.85
2023-04-15T08:08:07.870Z,5.28
2023-04-15T08:10:39.336Z,4.97
2023-04-15T08:13:10.467Z,4.07
2023-04-15T08:15:41.713Z,5.10
2023-04-15T08:18:13.461Z,2.90
2023-04-15T08:20:43.891Z,3.47
2023-04-15T08:23:15.152Z,5.82
2023-04-15T08:25:45.496Z,2.50
2023-04-15T08:28:15.524Z,5.38
2023-04-15T08:30:45.704Z,3.72
2023-04-15T08:33:16.925Z,7.03
2023-04-15T08:35:47.334Z,2.53
2023-04-15T08:38:17.377Z,2.63
2023-04-15T08:40:49.305Z,3.70
2023-04-15T08:43:30.691Z,3.40
2023-04-15T08:46:04.422Z,1.52
2023-04-15T08:48:41.847Z,2.00
2023-04-15T08:51:12.672Z,4.95
2023-04-15T08:53:43.444Z,2.10
2023-04-15T08:56:16.504Z,3.25
2023-04-15T08:58:47.598Z,2.42
2023-04-15T09:01:18.955Z,3.92
2023-04-15T09:03:52.217Z,3.42
2023-04-15T09:06:24.914Z,2.60
2023-04-15T09:08:55.991Z,3.53
2023-04-15T09:11:26.364Z,3.00
2023-04-15T09:13:56.379Z,2.75
2023-04-15T09:16:27.960Z,2.28
2023-04-15T09:18:58.296Z,2.90
2023-04-15T09:21:30.965Z,4.18
2023-04-15T09:24:03.155Z,1.48
2023-04-15T09:26:38.495Z,2.22
2023-04-15T09:29:11.458Z,3.75
2023-04-15T09:31:45.338Z,4.07
2023-04-15T09:34:16.250Z,3.70
2023-04-15T09:36:51.182Z,3.97
2023-04-15T09:39:22.545Z,5.55
2023-04-15T09:42:09.371Z,3.33
2023-04-15T09:44:39.866Z,4.22
2023-04-15T09:47:11.597Z,2.88
2023-04-15T09:49:58.393Z,3.63
2023-04-15T09:52:29.994Z,2.30
2023-04-15T09:55:03.210Z,3.08
2023-04-15T09:57:42.352Z,4.20
2023-04-15T10:00:13.469Z,2.85
2023-04-15T10:02:46.208Z,5.97
2023-04-15T10:05:19.363Z,4.60
2023-04-15T10:07:51.409Z,3.75
2023-04-15T10:10:22.099Z,3.08
2023-04-15T10:12:54.178Z,1.35
2023-04-15T10:15:29.016Z,4.72
2023-04-15T10:18:03.213Z,3.15
2023-04-15T10:20:34.654Z,2.83
2023-04-15T10:23:08.157Z,2.35
2023-04-15T10:25:40.794Z,4.88
2023-04-15T10:28:11.252Z,1.85
2023-04-15T10:30:41.737Z,2.08
2023-04-15T10:33:13.199Z,3.67
2023-04-15T10:35:44.724Z,3.42
2023-04-15T10:38:33.332Z,2.40
2023-04-15T10:41:22.948Z,3.38
2023-04-15T10:43:55.268Z,4.47
2023-04-15T10:46:43.774Z,2.03
2023-04-15T10:49:26.909Z,2.40
2023-04-15T10:52:01.514Z,6.72
2023-04-15T10:54:33.086Z,1.70
2023-04-15T10:57:03.977Z,2.72
2023-04-15T11:00:01.832Z,2.00
2023-04-15T11:02:56.000Z,1.63
2023-04-15T11:05:55.957Z,2.10
2023-04-15T11:09:01.117Z,4.60
2023-04-15T11:12:11.484Z,3.08
2023-04-15T11:14:50.254Z,2.63
2023-04-15T11:17:33.806Z,2.10
2023-04-15T11:20:05.964Z,2.53
2023-04-15T11:22:38.566Z,4.35
2023-04-15T11:25:10.508Z,2.08
2023-04-15T11:27:41.748Z,6.55
2023-04-15T11:30:26.809Z,3.25
2023-04-15T11:33:09.208Z,4.20
2023-04-15T11:35:40.537Z,4.90
2023-04-15T11:38:16.337Z,4.53
2023-04-15T11:40:47.363Z,3.97
2023-04-15T11:43:22.284Z,1.40
2023-04-15T11:46:01.417Z,4.63
2023-04-15T11:48:38.243Z,4.18
2023-04-15T11:51:10.324Z,2.92
2023-04-15T11:53:44.395Z,3.05
2023-04-15T11:56:26.278Z,4.20
2023-04-15T11:59:03.060Z,4.30
2023-04-15T12:01:41.625Z,5.03
2023-04-15T12:04:25.903Z,2.58
2023-04-15T12:06:57.336Z,5.93
2023-04-15T12:09:29.980Z,3.63
2023-04-15T12:12:02.400Z,2.75
2023-04-15T12:14:37.539Z,2.20
2023-04-15T12:17:10.797Z,2.53
2023-04-15T12:19:51.190Z,2.97
2023-04-15T12:22:24.958Z,2.95
2023-04-15T12:24:58.859Z,4.65
2023-04-15T12:27:31.324Z,3.55
2023-04-15T12:30:16.203Z,4.07
2023-04-15T12:32:49.320Z,3.33
2023-04-15T12:35:23.753Z,4.93
2023-04-15T12:37:54.165Z,5.30
2023-04-15T12:40:25.521Z,2.58
2023-04-15T12:42:59.274Z,3.35
2023-04-15T12:45:31.191Z,2.97
2023-04-15T12:48:02.750Z,2.92
2023-04-15T12:50:33.993Z,4.53
2023-04-15T12:53:07.458Z,1.58
2023-04-15T12:55:37.698Z,5.28
2023-04-15T12:58:08.831Z,6.15
2023-04-15T13:00:43.660Z,2.63
2023-04-15T13:03:13.908Z,2.60
2023-04-15T13:05:47.005Z,3.25
2023-04-15T13:08:18.691Z,4.35
2023-04-15T13:10:51.028Z,17.35
2023-04-15T13:13:21.998Z,7.43
2023-04-15T13:15:53.586Z,14.57
2023-04-15T13:18:25.821Z,32.00
2023-04-15T13:20:58.685Z,13.50
2023-04-15T13:23:31.251Z,9.25
2023-04-15T13:26:01.575Z,13.93
2023-04-15T13:28:31.889Z,11.05
2023-04-15T13:31:03.586Z,4.10
2023-04-15T13:33:34.340Z,5.97
2023-04-15T13:36:05.344Z,14.55
2023-04-15T13:38:37.239Z,50.63
2023-04-15T13:41:23.366Z,47.10
2023-04-15T13:43:59.920Z,51.58
2023-04-15T13:46:30.118Z,50.00
2023-04-15T13:49:00.400Z,40.53
2023-04-15T13:51:32.151Z,27.80
2023-04-15T13:54:04.605Z,31.45
2023-04-15T13:56:35.532Z,25.88
2023-04-15T13:59:06.541Z,30.52
2023-04-15T14:01:37.508Z,38.20
2023-04-15T14:04:12.602Z,37.25
2023-04-15T14:06:43.934Z,29.70
2023-04-15T14:09:15.282Z,43.30
2023-04-15T14:11:45.718Z,43.03
2023-04-15T14:14:16.297Z,26.40
2023-04-15T14:16:47.845Z,38.47
2023-04-15T14:19:21.345Z,24.38
2023-04-15T14:21:54.462Z,39.63
2023-04-15T14:24:25.789Z,31.80
2023-04-15T14:26:57.216Z,41.53
2023-04-15T14:29:27.641Z,31.27
2023-04-15T14:32:06.206Z,40.78
2023-04-15T14:34:43.243Z,32.72
2023-04-15T14:37:13.765Z,49.38
2023-04-15T14:39:45.048Z,38.92
2023-04-15T14:42:16.446Z,40.72
2023-04-15T14:44:47.519Z,46.83
2023-04-15T14:47:19.663Z,34.42
2023-04-15T14:49:52.283Z,45.63
2023-04-15T14:52:23.655Z,46.83
2023-04-15T14:54:53.825Z,36.45
2023-04-15T14:57:24.090Z,34.78
2023-04-15T14:59:58.888Z,45.10
2023-04-15T15:02:38.387Z,36.35
2023-04-15T15:05:14.504Z,32.33
2023-04-15T15:07:45.470Z,45.10
2023-04-15T15:10:15.936Z,46.60
2023-04-15T15:13:11.479Z,39.42
2023-04-15T15:15:43.133Z,37.35
2023-04-15T15:18:14.783Z,29.75
2023-04-15T15:20:46.308Z,40.00
2023-04-15T15:23:17.896Z,36.13
2023-04-15T15:25:49.288Z,39.55
2023-04-15T15:28:20.263Z,53.33
2023-04-15T15:30:51.738Z,39.22
2023-04-15T15:33:23.161Z,48.75
2023-04-15T15:35:55.448Z,34.58
2023-04-15T15:38:33.130Z,34.42
2023-04-15T15:41:03.643Z,32.08
2023-04-15T15:43:34.878Z,41.38
2023-04-15T15:46:07.352Z,35.80
2023-04-15T15:48:41.488Z,26.55
2023-04-15T15:51:14.485Z,60.85
2023-04-15T15:53:46.161Z,24.20
2023-04-15T15:56:17.629Z,55.33
2023-04-15T15:58:57.431Z,30.88
2023-04-15T16:01:28.123Z,36.53
2023-04-15T16:03:58.588Z,43.38
2023-04-15T16:06:31.453Z,33.75
2023-04-15T16:09:03.910Z,39.08
2023-04-15T16:11:35.830Z,32.00
2023-04-15T16:14:09.468Z,28.00
2023-04-15T16:16:41.910Z,30.42
2023-04-15T16:19:13.055Z,37.90
2023-04-15T16:21:44.757Z,49.33
2023-04-15T16:24:16.745Z,46.40
2023-04-15T16:26:47.158Z,52.72
2023-04-15T16:29:18.433Z,38.42
2023-04-15T16:31:51.192Z,25.25
2023-04-15T16:34:23.359Z,34.42
2023-04-15T16:36:57.164Z,27.15
2023-04-15T16:39:30.601Z,47.72
2023-04-15T16:42:04.737Z,27.48
2023-04-15T16:44:36.294Z,41.17
2023-04-15T16:47:07.965Z,23.85
2023-04-15T16:49:40.975Z,26.77
2023-04-15T16:52:27.068Z,28.15
2023-04-15T16:54:59.847Z,28.70
2023-04-15T16:57:36.581Z,32.05
2023-04-15T17:00:24.415Z,34.33
2023-04-15T17:02:57.557Z,34.97
2023-04-15T17:05:31.348Z,32.55
2023-04-15T17:08:05.938Z,36.22
2023-04-15T17:10:40.021Z,38.78
2023-04-15T17:13:15.112Z,29.00
2023-04-15T17:15:45.856Z,32.05
2023-04-15T17:18:17.666Z,23.60
2023-04-15T17:20:48.926Z,50.20
2023-04-15T17:23:25.413Z,35.15
2023-04-15T17:25:56.955Z,32.13
2023-04-15T17:28:37.603Z,33.22
2023-04-15T17:31:09.084Z,35.83
2023-04-15T17:33:58.789Z,50.15
2023-04-15T17:36:35.799Z,41.03
2023-04-15T17:39:08.038Z,44.53
2023-04-15T17:41:38.847Z,52.80
2023-04-15T17:44:13.160Z,27.73
2023-04-15T17:46:45.095Z,31.38
2023-04-15T17:49:16.477Z,26.88
2023-04-15T17:51:49.475Z,35.30
2023-04-15T17:54:20.543Z,30.95
2023-04-15T17:56:52.163Z,30.52
2023-04-15T17:59:23.209Z,44.47
2023-04-15T18:01:53.797Z,35.15
2023-04-15T18:04:27.008Z,33.17
2023-04-15T18:07:01.745Z,26.30
2023-04-15T18:09:35.595Z,24.63
2023-04-15T18:12:08.947Z,30.58
2023-04-15T18:14:44.114Z,27.77
2023-04-15T18:17:19.230Z,30.95
2023-04-15T18:19:50.033Z,39.65
2023-04-15T18:22:22.912Z,33.92
2023-04-15T18:24:56.145Z,34.00
2023-04-15T18:27:27.452Z,51.63
2023-04-15T18:29:59.466Z,44.00
2023-04-15T18:32:38.267Z,42.70
2023-04-15T18:35:23.922Z,39.53
2023-04-15T18:38:00.409Z,38.60
2023-04-15T18:40:42.411Z,41.25
2023-04-15T18:43:14.043Z,32.38
2023-04-15T18:45:50.388Z,37.38
2023-04-15T18:48:21.760Z,38.08
2023-04-15T18:50:56.320Z,35.45
2023-04-15T18:53:27.123Z,50.17
2023-04-15T18:56:06.644Z,39.03
2023-04-15T18:59:27.792Z,29.20
2023-04-15T19:01:43.094Z,48.28
2023-04-15T19:04:13.864Z,36.25
2023-04-15T19:06:48.988Z,27.13
2023-04-15T19:09:23.344Z,44.92
2023-04-15T19:11:59.840Z,27.45
2023-04-15T19:14:32.358Z,42.00
2023-04-15T19:17:04.091Z,31.27
2023-04-15T19:19:41.396Z,29.98
2023-04-15T19:22:13.883Z,41.33
2023-04-15T19:24:45.430Z,23.40
2023-04-15T19:27:17.427Z,46.10
2023-04-15T19:29:50.106Z,33.95
2023-04-15T19:32:21.283Z,56.85
2023-04-15T19:34:54.479Z,31.80
2023-04-15T19:37:25.043Z,33.72
2023-04-15T19:39:58.523Z,47.65
2023-04-15T19:42:34.336Z,41.47
2023-04-15T19:45:14.676Z,60.58
2023-04-15T19:47:45.211Z,41.58
2023-04-15T19:50:17.027Z,45.83
2023-04-15T19:52:48.573Z,45.55
2023-04-15T19:55:20.251Z,21.20
2023-04-15T19:57:51.631Z,13.80
2023-04-15T20:00:23.359Z,8.43
2023-04-15T20:02:54.828Z,9.13
2023-04-15T20:05:33.120Z,10.68
2023-04-15T20:08:10.896Z,5.00
2023-04-15T20:10:42.363Z,6.40
2023-04-15T20:13:13.509Z,5.50
2023-04-15T20:15:44.607Z,10.73
2023-04-15T20:18:16.473Z,10.32
2023-04-15T20:20:46.784Z,7.25
2023-04-15T20:23:17.668Z,9.38
2023-04-15T20:25:47.781Z,9.18
2023-04-15T20:28:20.289Z,10.85
2023-04-15T20:30:51.496Z,9.85
2023-04-15T20:33:23.590Z,9.52
2023-04-15T20:35:55.750Z,11.82
2023-04-15T20:38:28.002Z,9.45
2023-04-15T20:40:59.520Z,13.90
2023-04-15T20:43:30.786Z,12.50
2023-04-15T20:46:06.993Z,19.70
2023-04-15T20:48:56.232Z,18.63
2023-04-15T20:51:27.189Z,17.83
2023-04-15T20:54:00.745Z,21.17
2023-04-15T20:56:36.848Z,18.48
2023-04-15T20:59:07.832Z,22.20
2023-04-15T21:01:39.002Z,13.57
2023-04-15T21:04:10.756Z,34.80
2023-04-15T21:06:41.758Z,39.85
2023-04-15T21:09:12.851Z,21.48
2023-04-15T21:12:00.607Z,16.77
2023-04-15T21:14:32.482Z,16.05
2023-04-15T21:17:11.450Z,19.25
2023-04-15T21:19:45.257Z,19.50
2023-04-15T21:22:15.498Z,28.10
2023-04-15T21:24:46.315Z,40.40
2023-04-15T21:27:17.469Z,51.03
2023-04-15T21:29:48.226Z,46.97
2023-04-15T21:32:19.757Z,55.45
2023-04-15T21:34:55.117Z,29.92
2023-04-15T21:37:26.601Z,22.00
2023-04-15T21:40:07.186Z,31.05
2023-04-15T21:42:38.676Z,37.60
2023-04-15T21:45:10.205Z,46.75
2023-04-15T21:47:56.839Z,49.35
2023-04-15T21:50:31.991Z,55.05
2023-04-15T21:53:03.260Z,28.95
2023-04-15T21:55:34.485Z,41.42
2023-04-15T21:58:06.409Z,44.95
2023-04-15T22:00:38.055Z,48.97
2023-04-15T22:03:10.199Z,32.40
2023-04-15T22:05:41.979Z,45.00
2023-04-15T22:08:12.849Z,42.42
2023-04-15T22:10:42.908Z,63.20
2023-04-15T22:13:14.916Z,49.08
2023-04-15T22:15:45.295Z,45.50
2023-04-15T22:18:15.534Z,57.05
2023-04-15T22:20:46.968Z,53.70
2023-04-15T22:23:18.660Z,55.88
2023-04-15T22:25:49.962Z,55.03
2023-04-15T22:28:21.509Z,70.72
2023-04-15T22:30:51.720Z,48.60
2023-04-15T22:33:22.270Z,31.35
2023-04-15T22:35:53.038Z,18.52
2023-04-15T22:38:25.504Z,15.75
2023-04-15T22:40:56.406Z,14.30
2023-04-15T22:43:27.614Z,15.50
2023-04-15T22:45:58.957Z,18.73
2023-04-15T22:48:30.301Z,9.68
2023-04-15T22:51:01.300Z,8.85
2023-04-15T22:53:32.182Z,13.88
2023-04-15T22:56:03.089Z,11.00
2023-04-15T22:58:34.235Z,11.25
2023-04-15T23:01:05.244Z,12.70
2023-04-15T23:03:55.564Z,10.20
2023-04-15T23:06:25.792Z,9.00
2023-04-15T23:08:56.785Z,11.73
2023-04-15T23:11:27.283Z,19.65
2023-04-15T23:13:59.216Z,16.45
2023-04-15T23:16:31.235Z,59.55
2023-04-15T23:19:02.329Z,40.88
2023-04-15T23:21:32.907Z,54.03
2023-04-15T23:24:04.924Z,82.97
2023-04-15T23:26:36.123Z,73.28
2023-04-15T23:29:07.213Z,68.57
2023-04-15T23:31:37.986Z,28.42
2023-04-15T23:34:09.085Z,10.27
2023-04-15T23:36:39.929Z,5.32
2023-04-15T23:39:10.536Z,3.83
2023-04-15T23:41:42.048Z,5.88
2023-04-15T23:44:13.537Z,6.50
2023-04-15T23:46:44.776Z,6.55
2023-04-15T23:49:17.359Z,12.70
2023-04-15T23:51:49.744Z,10.70
2023-04-15T23:54:20.677Z,13.82
2023-04-15T23:56:53.084Z,19.38
2023-04-15T23:59:23.308Z,15.43
